Luke — CQOU — position and weather

sailwx.info

Track history (hours):
 
Tides and Currents Weather Stations Pressure Air Temp Water Temp Dewpoint Dewpoint Depression Visibility Wind Speed Wind Dir Waves Ship Positions

Luke

Last reported at 2017-Sep-24 05:00 UTC. Time now 2017-Sep-24 05:18 UTC.
Position N 46°30' W 002°31'.

Length 84 m; draft 5.3 m.

Type: Tanker. MMSI: 255802950.

Date/timePositionNaut miles runAvg speedWind from/ knotsBaromVisibWave heightAir tempDewpointWater temp
2017-Sep-24 05:00N 46°30' W 002°31'611.8
2017-Sep-24 04:30N 46°26' W 002°24'611.8
2017-Sep-24 04:00N 46°22' W 002°18'611.8
2017-Sep-24 03:30N 46°18' W 002°11'612.2
2017-Sep-24 03:00N 46°13' W 002°06'612.3
2017-Sep-24 02:30N 46°08' W 002°00'612.3
2017-Sep-24 02:01N 46°03' W 001°55'712.7
2017-Sep-24 01:26N 45°58' W 001°48'512.7
2017-Sep-24 01:00N 45°54' W 001°43'912.6
2017-Sep-24 00:15N 45°46' W 001°35'512.8
2017-Sep-23 23:51N 45°42' W 001°30'512.6
2017-Sep-23 23:28N 45°39' W 001°25'511.1
2017-Sep-23 23:00N 45°38' W 001°18'4212.9
2017-Sep-23 19:45N 45°05' W 000°40'123 2.9
2017-Sep-22 02:00N 46°35' W 002°40'611.9
2017-Sep-22 01:29N 46°39' W 002°47'611.8
2017-Sep-22 01:01N 46°42' W 002°53'611.8
2017-Sep-22 00:30N 46°46' W 002°60'611.6
2017-Sep-22 00:00N 46°50' W 003°06'611.7
2017-Sep-21 23:30N 46°54' W 003°13'611.9
2017-Sep-21 23:00N 46°57' W 003°20'611.8
2017-Sep-21 22:30N 47°01' W 003°26'611.6
2017-Sep-21 22:00N 47°05' W 003°33'611.5
2017-Sep-21 21:31N 47°08' W 003°39'611.4
2017-Sep-21 21:00N 47°12' W 003°46'611.8
2017-Sep-21 20:30N 47°16' W 003°52'611.9
2017-Sep-21 20:00N 47°20' W 003°59'611.9
2017-Sep-21 19:31N 47°24' W 004°05'611.8
2017-Sep-21 19:00N 47°28' W 004°12'612.0
2017-Sep-21 18:29N 47°31' W 004°20'711.9
2017-Sep-21 17:52N 47°36' W 004°28'412.0
2017-Sep-21 17:30N 47°39' W 004°33'611.9
2017-Sep-21 17:00N 47°43' W 004°40'611.9
2017-Sep-21 16:30N 47°46' W 004°47'611.5
2017-Sep-21 16:00N 47°50' W 004°53'611.1
2017-Sep-21 15:30N 47°54' W 004°59'510.4
2017-Sep-21 15:00N 47°58' W 005°05'510.0
2017-Sep-21 14:31N 48°01' W 005°10'510.1
2017-Sep-21 14:00N 48°05' W 005°15'510.5
2017-Sep-21 13:30N 48°09' W 005°20'510.6
2017-Sep-21 13:00N 48°13' W 005°25'1511.1
2017-Sep-21 11:38N 48°24' W 005°40'73 8.3
2017-Sep-21 02:47N 49°22' W 004°31'6 9.4
2017-Sep-21 02:12N 49°25' W 004°24'210.0
2017-Sep-21 01:59N 49°26' W 004°21'610.7
2017-Sep-21 01:27N 49°29' W 004°14'511.1
2017-Sep-21 01:00N 49°31' W 004°07'611.6
2017-Sep-21 00:29N 49°34' W 003°59'611.8
2017-Sep-21 00:00N 49°37' W 003°51'611.8
2017-Sep-20 23:30N 49°40' W 003°43'611.4
2017-Sep-20 23:00N 49°43' W 003°36'611.1
2017-Sep-20 22:30N 49°46' W 003°29'510.7
2017-Sep-20 22:00N 49°48' W 003°21'510.2
2017-Sep-20 21:30N 49°51' W 003°14'5 9.8
2017-Sep-20 21:00N 49°53' W 003°08'5 9.3
2017-Sep-20 20:30N 49°55' W 003°01'5 9.1
2017-Sep-20 20:00N 49°57' W 002°55'4 8.9
2017-Sep-20 19:30N 49°58' W 002°48'5 8.7
2017-Sep-20 18:58N 49°60' W 002°41'4 8.9
2017-Sep-20 18:30N 50°01' W 002°35'1810.0
2017-Sep-20 16:43N 49°60' W 002°07'312.2
2017-Sep-20 16:30N 49°59' W 002°03'612.9
2017-Sep-20 16:00N 49°57' W 001°54'713.6
2017-Sep-20 15:30N 49°55' W 001°43'714.3
2017-Sep-20 15:00N 49°53' W 001°33'1515.5
2017-Sep-20 14:01N 49°49' W 001°10'715.0
2017-Sep-20 13:30N 49°45' W 000°60'1014.5
2017-Sep-20 12:51N 49°42' W 000°46'1513.2
2017-Sep-20 11:45N 49°35' W 000°26'312.6
2017-Sep-20 11:31N 49°34' W 000°22'612.2
2017-Sep-20 11:01N 49°31' W 000°13'611.7
2017-Sep-20 10:30N 49°29' W 000°05'611.3
2017-Sep-20 10:00N 49°27' E 000°03'611.5
2017-Sep-20 09:31N 49°26' E 000°12'510.6
2017-Sep-20 09:00N 49°26' E 000°20'5 9.7
2017-Sep-20 08:30N 49°28' E 000°27'3 6.6
2017-Sep-20 08:00N 49°28' E 000°32'  
2017-Sep-17 05:26N 49°28' E 000°32'0 0.1
2017-Sep-17 05:00N 49°28' E 000°32'3 5.9
2017-Sep-17 04:30N 49°28' E 000°28'611.9
2017-Sep-17 04:00N 49°26' E 000°19'510.8
2017-Sep-17 03:30N 49°26' E 000°11'611.1
2017-Sep-17 03:00N 49°27' E 000°03'510.4
2017-Sep-17 02:30N 49°29' W 000°05'1 2.2
2017-Sep-17 01:59N 49°28' W 000°06'0 0.0
2017-Sep-17 01:29N 49°28' W 000°06'0 0.0
2017-Sep-17 00:59N 49°28' W 000°06'0 0.0
2017-Sep-17 00:29N 49°28' W 000°06'0 0.0
2017-Sep-16 23:59N 49°28' W 000°06'0 0.0
2017-Sep-16 23:29N 49°28' W 000°06'0 0.0
2017-Sep-16 22:59N 49°28' W 000°06'0 0.1
2017-Sep-16 22:29N 49°28' W 000°06'0 0.1
2017-Sep-16 21:59N 49°28' W 000°06'0 0.1
2017-Sep-16 21:29N 49°28' W 000°06'0 0.1
2017-Sep-16 20:56N 49°28' W 000°06'0 0.1
2017-Sep-16 20:29N 49°28' W 000°06'0 0.0
2017-Sep-16 19:59N 49°28' W 000°06'0 0.0
2017-Sep-16 19:29N 49°28' W 000°06'0 0.0
2017-Sep-16 18:59N 49°28' W 000°06'0 0.0
2017-Sep-16 18:29N 49°28' W 000°06'0 0.0
2017-Sep-16 17:59N 49°28' W 000°06'0 0.0
2017-Sep-16 17:29N 49°28' W 000°06'0 0.0
2017-Sep-16 16:59N 49°28' W 000°06'0 0.0
2017-Sep-16 16:29N 49°28' W 000°06'0 0.0
2017-Sep-16 15:59N 49°28' W 000°06'0 0.0
2017-Sep-16 15:29N 49°28' W 000°06'0 0.0
2017-Sep-16 14:59N 49°28' W 000°06'0 0.1
2017-Sep-16 14:29N 49°28' W 000°06'0 0.1
2017-Sep-16 13:59N 49°28' W 000°06'0 0.0
2017-Sep-16 13:29N 49°28' W 000°06'0 0.0
2017-Sep-16 12:59N 49°28' W 000°06'0 0.0
2017-Sep-16 12:29N 49°28' W 000°06'0 0.0
2017-Sep-16 11:59N 49°28' W 000°06'0 0.0
2017-Sep-16 11:29N 49°28' W 000°06'0 0.1
2017-Sep-16 10:59N 49°28' W 000°06'0 0.1
2017-Sep-16 10:29N 49°28' W 000°06'0 0.1
2017-Sep-16 09:59N 49°28' W 000°06'0 0.1
2017-Sep-16 09:29N 49°28' W 000°06'0 0.1
2017-Sep-16 08:59N 49°28' W 000°06'0 0.1
2017-Sep-16 08:29N 49°28' W 000°06'0 0.0
2017-Sep-16 07:59N 49°28' W 000°06'0 0.0
2017-Sep-16 07:29N 49°28' W 000°06'0 0.0
2017-Sep-16 06:59N 49°28' W 000°06'0 0.0
2017-Sep-16 06:29N 49°28' W 000°06'0 0.0
2017-Sep-16 05:59N 49°28' W 000°06'0 0.0
2017-Sep-16 05:29N 49°28' W 000°06'0 0.0
2017-Sep-16 04:59N 49°28' W 000°06'0 0.0
2017-Sep-16 04:29N 49°28' W 000°06'0 0.0
2017-Sep-16 03:53N 49°28' W 000°06'0 0.0
2017-Sep-16 03:29N 49°28' W 000°06'0 0.0
2017-Sep-16 02:59N 49°28' W 000°06'0 0.0
2017-Sep-16 02:29N 49°28' W 000°06'0 0.1
2017-Sep-16 01:59N 49°28' W 000°06'0 0.1
2017-Sep-16 01:29N 49°28' W 000°06'0 0.2
2017-Sep-16 00:59N 49°28' W 000°06'0 0.0
2017-Sep-16 00:29N 49°28' W 000°06'0 0.0
2017-Sep-15 23:59N 49°28' W 000°06'0 0.0
2017-Sep-15 23:29N 49°28' W 000°06'0 0.0
2017-Sep-15 22:59N 49°28' W 000°06'0 0.0
2017-Sep-15 22:29N 49°28' W 000°06'0 0.0
2017-Sep-15 21:59N 49°28' W 000°06'0 0.0
2017-Sep-15 21:29N 49°28' W 000°06'0 0.1
2017-Sep-15 20:59N 49°28' W 000°06'0 0.1
2017-Sep-15 20:29N 49°28' W 000°06'0 0.0
2017-Sep-15 19:59N 49°28' W 000°06'0 0.0
2017-Sep-15 19:29N 49°28' W 000°06'0 0.0
2017-Sep-15 18:59N 49°28' W 000°06'0 0.0
2017-Sep-15 18:29N 49°28' W 000°06'0 0.0
2017-Sep-15 17:59N 49°28' W 000°06'0 0.0
2017-Sep-15 17:29N 49°28' W 000°06'0 0.0
2017-Sep-15 16:59N 49°28' W 000°06'0 0.0
2017-Sep-15 16:29N 49°28' W 000°06'0 0.0
2017-Sep-15 15:59N 49°28' W 000°06'0 0.0
2017-Sep-15 15:29N 49°28' W 000°06'0 0.0
2017-Sep-15 14:59N 49°28' W 000°06'0 0.0
2017-Sep-15 14:29N 49°28' W 000°06'0 0.0
2017-Sep-15 13:59N 49°28' W 000°06'0 0.0
2017-Sep-15 13:29N 49°28' W 000°06'0 0.0
2017-Sep-15 12:59N 49°28' W 000°06'0 0.0
2017-Sep-15 12:29N 49°28' W 000°06'0 0.1
2017-Sep-15 11:59N 49°28' W 000°06'0 0.0
2017-Sep-15 11:29N 49°28' W 000°06'0 0.0
2017-Sep-15 10:59N 49°28' W 000°06'0 0.0
2017-Sep-15 10:29N 49°28' W 000°06'0 0.1
2017-Sep-15 09:59N 49°28' W 000°06'0 0.1
2017-Sep-15 09:29N 49°28' W 000°06'0 0.0
2017-Sep-15 08:59N 49°28' W 000°06'0 0.1
2017-Sep-15 08:29N 49°28' W 000°06'0 0.0
2017-Sep-15 07:59N 49°28' W 000°06'0 0.1
2017-Sep-15 07:29N 49°28' W 000°06'0 0.0
2017-Sep-15 06:59N 49°28' W 000°06'0 0.1
2017-Sep-15 06:29N 49°28' W 000°06'0 0.0
2017-Sep-15 05:59N 49°28' W 000°06'0 0.0
2017-Sep-15 05:29N 49°28' W 000°06'0 0.0
2017-Sep-15 04:59N 49°28' W 000°06'0 0.0
2017-Sep-15 04:29N 49°28' W 000°06'0 0.0
2017-Sep-15 03:59N 49°28' W 000°06'0 0.0
2017-Sep-15 03:29N 49°28' W 000°06'0 0.0
2017-Sep-15 02:59N 49°28' W 000°06'0 0.0
2017-Sep-15 02:29N 49°28' W 000°06'0 0.0
2017-Sep-15 01:59N 49°28' W 000°06'0 0.0
2017-Sep-15 01:29N 49°28' W 000°06'0 0.0
2017-Sep-15 00:59N 49°28' W 000°06'0 0.0
2017-Sep-15 00:29N 49°28' W 000°06'0 0.1
2017-Sep-14 23:59N 49°28' W 000°06'0 0.0
2017-Sep-14 23:29N 49°28' W 000°06'0 0.0
2017-Sep-14 22:59N 49°28' W 000°06'0 0.1
2017-Sep-14 22:29N 49°28' W 000°06'0 0.0
2017-Sep-14 21:59N 49°28' W 000°06'0 0.0
2017-Sep-14 21:29N 49°28' W 000°06'0 0.0
2017-Sep-14 20:59N 49°28' W 000°06'0 0.1
2017-Sep-14 20:29N 49°28' W 000°06'0 0.0
2017-Sep-14 19:59N 49°28' W 000°06'0 0.0
2017-Sep-14 19:29N 49°28' W 000°06'0 0.1
2017-Sep-14 18:59N 49°28' W 000°06'0 0.0
2017-Sep-14 18:20N 49°28' W 000°06'0 0.0
2017-Sep-14 17:59N 49°28' W 000°06'0 0.0
2017-Sep-14 17:20N 49°28' W 000°06'0 0.0
2017-Sep-14 16:59N 49°28' W 000°06'0 0.0
2017-Sep-14 16:29N 49°28' W 000°06'0 0.0
2017-Sep-14 15:59N 49°28' W 000°06'0 0.0
2017-Sep-14 15:29N 49°28' W 000°06'0 0.0
2017-Sep-14 14:59N 49°28' W 000°06'0 0.0
2017-Sep-14 14:29N 49°28' W 000°06'0 0.0
2017-Sep-14 13:59N 49°28' W 000°06'0 0.0
2017-Sep-14 13:29N 49°28' W 000°06'0 0.0
2017-Sep-14 12:56N 49°28' W 000°06'0 0.0
2017-Sep-14 12:29N 49°28' W 000°06'0 0.0
2017-Sep-14 11:59N 49°28' W 000°06'0 0.0
2017-Sep-14 11:29N 49°28' W 000°06'0 0.0
2017-Sep-14 10:59N 49°28' W 000°06'0 0.0
2017-Sep-14 10:29N 49°28' W 000°06'0 0.0
2017-Sep-14 09:59N 49°28' W 000°06'0 0.0
2017-Sep-14 09:29N 49°28' W 000°06'0 0.0
2017-Sep-14 08:59N 49°28' W 000°06'0 0.0
2017-Sep-14 08:29N 49°28' W 000°06'0 0.0
2017-Sep-14 07:59N 49°28' W 000°06'0 0.0
2017-Sep-14 07:26N 49°28' W 000°06'0 0.1
2017-Sep-14 06:56N 49°28' W 000°06'0 0.0
2017-Sep-14 06:29N 49°28' W 000°06'0 0.0
2017-Sep-14 05:59N 49°28' W 000°06'0 0.1
2017-Sep-14 05:29N 49°28' W 000°06'  
Track history (hours):
 
Tides and Currents Weather Stations Pressure Air Temp Water Temp Dewpoint Dewpoint Depression Visibility Wind Speed Wind Dir Waves Ship Positions

Luke

Last reported at 2017-Sep-24 05:00 UTC. Time now 2017-Sep-24 05:18 UTC.
Position N 46°30' W 002°31'.

Length 84 m; draft 5.3 m.

Type: Tanker. MMSI: 255802950.

Date/timePositionNaut miles runAvg speedWind from/ knotsBaromVisibWave heightAir tempDewpointWater temp
2017-Sep-24 05:00N 46°30' W 002°31'611.8
2017-Sep-24 04:30N 46°26' W 002°24'611.8
2017-Sep-24 04:00N 46°22' W 002°18'611.8
2017-Sep-24 03:30N 46°18' W 002°11'612.2
2017-Sep-24 03:00N 46°13' W 002°06'612.3
2017-Sep-24 02:30N 46°08' W 002°00'612.3
2017-Sep-24 02:01N 46°03' W 001°55'712.7
2017-Sep-24 01:26N 45°58' W 001°48'512.7
2017-Sep-24 01:00N 45°54' W 001°43'912.6
2017-Sep-24 00:15N 45°46' W 001°35'512.8
2017-Sep-23 23:51N 45°42' W 001°30'512.6
2017-Sep-23 23:28N 45°39' W 001°25'511.1
2017-Sep-23 23:00N 45°38' W 001°18'4212.9
2017-Sep-23 19:45N 45°05' W 000°40'123 2.9
2017-Sep-22 02:00N 46°35' W 002°40'611.9
2017-Sep-22 01:29N 46°39' W 002°47'611.8
2017-Sep-22 01:01N 46°42' W 002°53'611.8
2017-Sep-22 00:30N 46°46' W 002°60'611.6
2017-Sep-22 00:00N 46°50' W 003°06'611.7
2017-Sep-21 23:30N 46°54' W 003°13'611.9
2017-Sep-21 23:00N 46°57' W 003°20'611.8
2017-Sep-21 22:30N 47°01' W 003°26'611.6
2017-Sep-21 22:00N 47°05' W 003°33'611.5
2017-Sep-21 21:31N 47°08' W 003°39'611.4
2017-Sep-21 21:00N 47°12' W 003°46'611.8
2017-Sep-21 20:30N 47°16' W 003°52'611.9
2017-Sep-21 20:00N 47°20' W 003°59'611.9
2017-Sep-21 19:31N 47°24' W 004°05'611.8
2017-Sep-21 19:00N 47°28' W 004°12'612.0
2017-Sep-21 18:29N 47°31' W 004°20'711.9
2017-Sep-21 17:52N 47°36' W 004°28'412.0
2017-Sep-21 17:30N 47°39' W 004°33'611.9
2017-Sep-21 17:00N 47°43' W 004°40'611.9
2017-Sep-21 16:30N 47°46' W 004°47'611.5
2017-Sep-21 16:00N 47°50' W 004°53'611.1
2017-Sep-21 15:30N 47°54' W 004°59'510.4
2017-Sep-21 15:00N 47°58' W 005°05'510.0
2017-Sep-21 14:31N 48°01' W 005°10'510.1
2017-Sep-21 14:00N 48°05' W 005°15'510.5
2017-Sep-21 13:30N 48°09' W 005°20'510.6
2017-Sep-21 13:00N 48°13' W 005°25'1511.1
2017-Sep-21 11:38N 48°24' W 005°40'73 8.3
2017-Sep-21 02:47N 49°22' W 004°31'6 9.4
2017-Sep-21 02:12N 49°25' W 004°24'210.0
2017-Sep-21 01:59N 49°26' W 004°21'610.7
2017-Sep-21 01:27N 49°29' W 004°14'511.1
2017-Sep-21 01:00N 49°31' W 004°07'611.6
2017-Sep-21 00:29N 49°34' W 003°59'611.8
2017-Sep-21 00:00N 49°37' W 003°51'611.8
2017-Sep-20 23:30N 49°40' W 003°43'611.4
2017-Sep-20 23:00N 49°43' W 003°36'611.1
2017-Sep-20 22:30N 49°46' W 003°29'510.7
2017-Sep-20 22:00N 49°48' W 003°21'510.2
2017-Sep-20 21:30N 49°51' W 003°14'5 9.8
2017-Sep-20 21:00N 49°53' W 003°08'5 9.3
2017-Sep-20 20:30N 49°55' W 003°01'5 9.1
2017-Sep-20 20:00N 49°57' W 002°55'4 8.9
2017-Sep-20 19:30N 49°58' W 002°48'5 8.7
2017-Sep-20 18:58N 49°60' W 002°41'4 8.9
2017-Sep-20 18:30N 50°01' W 002°35'1810.0
2017-Sep-20 16:43N 49°60' W 002°07'312.2
2017-Sep-20 16:30N 49°59' W 002°03'612.9
2017-Sep-20 16:00N 49°57' W 001°54'713.6
2017-Sep-20 15:30N 49°55' W 001°43'714.3
2017-Sep-20 15:00N 49°53' W 001°33'1515.5
2017-Sep-20 14:01N 49°49' W 001°10'715.0
2017-Sep-20 13:30N 49°45' W 000°60'1014.5
2017-Sep-20 12:51N 49°42' W 000°46'1513.2
2017-Sep-20 11:45N 49°35' W 000°26'312.6
2017-Sep-20 11:31N 49°34' W 000°22'612.2
2017-Sep-20 11:01N 49°31' W 000°13'611.7
2017-Sep-20 10:30N 49°29' W 000°05'611.3
2017-Sep-20 10:00N 49°27' E 000°03'611.5
2017-Sep-20 09:31N 49°26' E 000°12'510.6
2017-Sep-20 09:00N 49°26' E 000°20'5 9.7
2017-Sep-20 08:30N 49°28' E 000°27'3 6.6
2017-Sep-20 08:00N 49°28' E 000°32'  
2017-Sep-17 05:26N 49°28' E 000°32'0 0.1
2017-Sep-17 05:00N 49°28' E 000°32'3 5.9
2017-Sep-17 04:30N 49°28' E 000°28'611.9
2017-Sep-17 04:00N 49°26' E 000°19'510.8
2017-Sep-17 03:30N 49°26' E 000°11'611.1
2017-Sep-17 03:00N 49°27' E 000°03'510.4
2017-Sep-17 02:30N 49°29' W 000°05'1 2.2
2017-Sep-17 01:59N 49°28' W 000°06'0 0.0
2017-Sep-17 01:29N 49°28' W 000°06'0 0.0
2017-Sep-17 00:59N 49°28' W 000°06'0 0.0
2017-Sep-17 00:29N 49°28' W 000°06'0 0.0
2017-Sep-16 23:59N 49°28' W 000°06'0 0.0
2017-Sep-16 23:29N 49°28' W 000°06'0 0.0
2017-Sep-16 22:59N 49°28' W 000°06'0 0.1
2017-Sep-16 22:29N 49°28' W 000°06'0 0.1
2017-Sep-16 21:59N 49°28' W 000°06'0 0.1
2017-Sep-16 21:29N 49°28' W 000°06'0 0.1
2017-Sep-16 20:56N 49°28' W 000°06'0 0.1
2017-Sep-16 20:29N 49°28' W 000°06'0 0.0
2017-Sep-16 19:59N 49°28' W 000°06'0 0.0
2017-Sep-16 19:29N 49°28' W 000°06'0 0.0
2017-Sep-16 18:59N 49°28' W 000°06'0 0.0
2017-Sep-16 18:29N 49°28' W 000°06'0 0.0
2017-Sep-16 17:59N 49°28' W 000°06'0 0.0
2017-Sep-16 17:29N 49°28' W 000°06'0 0.0
2017-Sep-16 16:59N 49°28' W 000°06'0 0.0
2017-Sep-16 16:29N 49°28' W 000°06'0 0.0
2017-Sep-16 15:59N 49°28' W 000°06'0 0.0
2017-Sep-16 15:29N 49°28' W 000°06'0 0.0
2017-Sep-16 14:59N 49°28' W 000°06'0 0.1
2017-Sep-16 14:29N 49°28' W 000°06'0 0.1
2017-Sep-16 13:59N 49°28' W 000°06'0 0.0
2017-Sep-16 13:29N 49°28' W 000°06'0 0.0
2017-Sep-16 12:59N 49°28' W 000°06'0 0.0
2017-Sep-16 12:29N 49°28' W 000°06'0 0.0
2017-Sep-16 11:59N 49°28' W 000°06'0 0.0
2017-Sep-16 11:29N 49°28' W 000°06'0 0.1
2017-Sep-16 10:59N 49°28' W 000°06'0 0.1
2017-Sep-16 10:29N 49°28' W 000°06'0 0.1
2017-Sep-16 09:59N 49°28' W 000°06'0 0.1
2017-Sep-16 09:29N 49°28' W 000°06'0 0.1
2017-Sep-16 08:59N 49°28' W 000°06'0 0.1
2017-Sep-16 08:29N 49°28' W 000°06'0 0.0
2017-Sep-16 07:59N 49°28' W 000°06'0 0.0
2017-Sep-16 07:29N 49°28' W 000°06'0 0.0
2017-Sep-16 06:59N 49°28' W 000°06'0 0.0
2017-Sep-16 06:29N 49°28' W 000°06'0 0.0
2017-Sep-16 05:59N 49°28' W 000°06'0 0.0
2017-Sep-16 05:29N 49°28' W 000°06'0 0.0
2017-Sep-16 04:59N 49°28' W 000°06'0 0.0
2017-Sep-16 04:29N 49°28' W 000°06'0 0.0
2017-Sep-16 03:53N 49°28' W 000°06'0 0.0
2017-Sep-16 03:29N 49°28' W 000°06'0 0.0
2017-Sep-16 02:59N 49°28' W 000°06'0 0.0
2017-Sep-16 02:29N 49°28' W 000°06'0 0.1
2017-Sep-16 01:59N 49°28' W 000°06'0 0.1
2017-Sep-16 01:29N 49°28' W 000°06'0 0.2
2017-Sep-16 00:59N 49°28' W 000°06'0 0.0
2017-Sep-16 00:29N 49°28' W 000°06'0 0.0
2017-Sep-15 23:59N 49°28' W 000°06'0 0.0
2017-Sep-15 23:29N 49°28' W 000°06'0 0.0
2017-Sep-15 22:59N 49°28' W 000°06'0 0.0
2017-Sep-15 22:29N 49°28' W 000°06'0 0.0
2017-Sep-15 21:59N 49°28' W 000°06'0 0.0
2017-Sep-15 21:29N 49°28' W 000°06'0 0.1
2017-Sep-15 20:59N 49°28' W 000°06'0 0.1
2017-Sep-15 20:29N 49°28' W 000°06'0 0.0
2017-Sep-15 19:59N 49°28' W 000°06'0 0.0
2017-Sep-15 19:29N 49°28' W 000°06'0 0.0
2017-Sep-15 18:59N 49°28' W 000°06'0 0.0
2017-Sep-15 18:29N 49°28' W 000°06'0 0.0
2017-Sep-15 17:59N 49°28' W 000°06'0 0.0
2017-Sep-15 17:29N 49°28' W 000°06'0 0.0
2017-Sep-15 16:59N 49°28' W 000°06'0 0.0
2017-Sep-15 16:29N 49°28' W 000°06'0 0.0
2017-Sep-15 15:59N 49°28' W 000°06'0 0.0
2017-Sep-15 15:29N 49°28' W 000°06'0 0.0
2017-Sep-15 14:59N 49°28' W 000°06'0 0.0
2017-Sep-15 14:29N 49°28' W 000°06'0 0.0
2017-Sep-15 13:59N 49°28' W 000°06'0 0.0
2017-Sep-15 13:29N 49°28' W 000°06'0 0.0
2017-Sep-15 12:59N 49°28' W 000°06'0 0.0
2017-Sep-15 12:29N 49°28' W 000°06'0 0.1
2017-Sep-15 11:59N 49°28' W 000°06'0 0.0
2017-Sep-15 11:29N 49°28' W 000°06'0 0.0
2017-Sep-15 10:59N 49°28' W 000°06'0 0.0
2017-Sep-15 10:29N 49°28' W 000°06'0 0.1
2017-Sep-15 09:59N 49°28' W 000°06'0 0.1
2017-Sep-15 09:29N 49°28' W 000°06'0 0.0
2017-Sep-15 08:59N 49°28' W 000°06'0 0.1
2017-Sep-15 08:29N 49°28' W 000°06'0 0.0
2017-Sep-15 07:59N 49°28' W 000°06'0 0.1
2017-Sep-15 07:29N 49°28' W 000°06'0 0.0
2017-Sep-15 06:59N 49°28' W 000°06'0 0.1
2017-Sep-15 06:29N 49°28' W 000°06'0 0.0
2017-Sep-15 05:59N 49°28' W 000°06'0 0.0
2017-Sep-15 05:29N 49°28' W 000°06'0 0.0
2017-Sep-15 04:59N 49°28' W 000°06'0 0.0
2017-Sep-15 04:29N 49°28' W 000°06'0 0.0
2017-Sep-15 03:59N 49°28' W 000°06'0 0.0
2017-Sep-15 03:29N 49°28' W 000°06'0 0.0
2017-Sep-15 02:59N 49°28' W 000°06'0 0.0
2017-Sep-15 02:29N 49°28' W 000°06'0 0.0
2017-Sep-15 01:59N 49°28' W 000°06'0 0.0
2017-Sep-15 01:29N 49°28' W 000°06'0 0.0
2017-Sep-15 00:59N 49°28' W 000°06'0 0.0
2017-Sep-15 00:29N 49°28' W 000°06'0 0.1
2017-Sep-14 23:59N 49°28' W 000°06'0 0.0
2017-Sep-14 23:29N 49°28' W 000°06'0 0.0
2017-Sep-14 22:59N 49°28' W 000°06'0 0.1
2017-Sep-14 22:29N 49°28' W 000°06'0 0.0
2017-Sep-14 21:59N 49°28' W 000°06'0 0.0
2017-Sep-14 21:29N 49°28' W 000°06'0 0.0
2017-Sep-14 20:59N 49°28' W 000°06'0 0.1
2017-Sep-14 20:29N 49°28' W 000°06'0 0.0
2017-Sep-14 19:59N 49°28' W 000°06'0 0.0
2017-Sep-14 19:29N 49°28' W 000°06'0 0.1
2017-Sep-14 18:59N 49°28' W 000°06'0 0.0
2017-Sep-14 18:20N 49°28' W 000°06'0 0.0
2017-Sep-14 17:59N 49°28' W 000°06'0 0.0
2017-Sep-14 17:20N 49°28' W 000°06'0 0.0
2017-Sep-14 16:59N 49°28' W 000°06'0 0.0
2017-Sep-14 16:29N 49°28' W 000°06'0 0.0
2017-Sep-14 15:59N 49°28' W 000°06'0 0.0
2017-Sep-14 15:29N 49°28' W 000°06'0 0.0
2017-Sep-14 14:59N 49°28' W 000°06'0 0.0
2017-Sep-14 14:29N 49°28' W 000°06'0 0.0
2017-Sep-14 13:59N 49°28' W 000°06'0 0.0
2017-Sep-14 13:29N 49°28' W 000°06'0 0.0
2017-Sep-14 12:56N 49°28' W 000°06'0 0.0
2017-Sep-14 12:29N 49°28' W 000°06'0 0.0
2017-Sep-14 11:59N 49°28' W 000°06'0 0.0
2017-Sep-14 11:29N 49°28' W 000°06'0 0.0
2017-Sep-14 10:59N 49°28' W 000°06'0 0.0
2017-Sep-14 10:29N 49°28' W 000°06'0 0.0
2017-Sep-14 09:59N 49°28' W 000°06'0 0.0
2017-Sep-14 09:29N 49°28' W 000°06'0 0.0
2017-Sep-14 08:59N 49°28' W 000°06'0 0.0
2017-Sep-14 08:29N 49°28' W 000°06'0 0.0
2017-Sep-14 07:59N 49°28' W 000°06'0 0.0
2017-Sep-14 07:26N 49°28' W 000°06'0 0.1
2017-Sep-14 06:56N 49°28' W 000°06'0 0.0
2017-Sep-14 06:29N 49°28' W 000°06'0 0.0
2017-Sep-14 05:59N 49°28' W 000°06'0 0.1
2017-Sep-14 05:29N 49°28' W 000°06'  

Dump ship's entire track history